METAR Data
IDs: Format: Raw Decoded Include TAF

Data at: 1339 UTC 09 Dec 2019

KFYE 091335Z AUTO 18017KT 10SM OVC016 16/13 A2977 RMK A01
KFYE 091315Z AUTO 18013G24KT 10SM OVC017 16/13 A2977 RMK A01
KFYE 091255Z AUTO 18015G24KT 10SM OVC018 17/13 A2978 RMK A01
KFYE 091235Z AUTO 20016KT 10SM OVC017 17/13 A2979 RMK A01
KFYE 091215Z AUTO 20013G21KT 10SM OVC018 17/13 A2978 RMK A01
KFYE 091155Z AUTO 20015G21KT 10SM OVC018 17/13 A2978 RMK A01
KFYE 091135Z AUTO 18012G19KT 150V210 10SM OVC020 17/13 A2977 RMK A01
KFYE 091115Z AUTO 17014KT 10SM OVC021 16/12 A2978 RMK A01
KFYE 091055Z AUTO 18012G21KT 10SM OVC021 16/12 A2978 RMK A01
KFYE 091035Z AUTO 18012G20KT 10SM OVC024 16/12 A2979 RMK A01
KFYE 091015Z AUTO 18013G19KT 10SM OVC027 16/12 A2980 RMK A01
KFYE 090955Z AUTO 18011G19KT 10SM BKN028 OVC034 16/13 A2981 RMK A01
KFYE 090935Z AUTO 17013G19KT 10SM BKN034 OVC039 16/13 A2981 RMK A01
KFYE 090915Z AUTO 18010G18KT 10SM SCT041 OVC048 16/13 A2982 RMK A01
KFYE 090855Z AUTO 18012G21KT 10SM OVC050 16/13 A2983 RMK A01
KFYE 090835Z AUTO 18011G17KT 10SM FEW017 SCT022 OVC055 16/13 A2983 RMK A01
KFYE 090815Z AUTO 19011G19KT 10SM BKN017 BKN022 OVC060 16/13 A2985 RMK A01
KFYE 090755Z AUTO 19011KT 10SM BKN017 BKN023 OVC065 16/13 A2985 RMK A01
KFYE 090735Z AUTO 18010G17KT 140V200 10SM BKN015 BKN026 OVC070 16/14 A2985 RMK A01
KFYE 090715Z AUTO 18011KT 10SM OVC015 16/13 A2986 RMK A01
KFYE 090655Z AUTO 18008G15KT 10SM OVC014 16/13 A2986 RMK A01
KFYE 090635Z AUTO 18008G16KT 140V200 10SM OVC015 16/13 A2986 RMK A01
KFYE 090615Z AUTO 18009G17KT 140V200 10SM OVC013 16/13 A2986 RMK A01
KFYE 090555Z AUTO 17012KT 10SM OVC011 16/13 A2987 RMK A01
KFYE 090535Z AUTO 17009G17KT 10SM OVC011 15/13 A2987 RMK A01
KFYE 090515Z AUTO 18011G22KT 10SM SCT012 15/13 A2989 RMK A01
KFYE 090455Z AUTO 17009G16KT 10SM SCT014 SCT022 SCT027 15/13 A2989 RMK A01
KFYE 090435Z AUTO 17008G13KT 10SM FEW015 BKN022 BKN027 15/12 A2989 RMK A01
KFYE 090415Z AUTO 17007KT 10SM OVC021 15/12 A2990 RMK A01
KFYE 090355Z AUTO 18007KT 10SM OVC020 14/12 A2990 RMK A01
KFYE 090335Z AUTO 18006KT 10SM BKN021 BKN026 14/12 A2991 RMK A01
KFYE 090315Z AUTO 17005KT 10SM BKN022 BKN028 14/11 A2990 RMK A01
KFYE 090255Z AUTO 15005KT 10SM BKN022 OVC028 14/11 A2992 RMK A01
KFYE 090235Z AUTO 19006KT 10SM OVC025 14/11 A2994 RMK A01
KFYE 090215Z AUTO 19004KT 10SM FEW020 BKN026 14/11 A2993 RMK A01
KFYE 090155Z AUTO 17007KT 140V200 10SM BKN021 OVC027 15/11 A2992 RMK A01
KFYE 090135Z AUTO 17005G11KT 10SM BKN021 OVC028 15/11 A2990 RMK A01
KFYE 090115Z AUTO 16007G12KT 10SM BKN023 OVC029 15/11 A2991 RMK A01
KFYE 090055Z AUTO 17007KT 10SM SCT021 OVC028 15/11 A2992 RMK A01
KFYE 090035Z AUTO 17007KT 130V190 10SM BKN021 OVC028 15/11 A2994 RMK A01
KFYE 090015Z AUTO VRB06KT 10SM BKN023 OVC030 15/11 A2995 RMK A01
KFYE 082355Z AUTO 15003KT 10SM OVC022 15/11 A2996 RMK A01
KFYE 082335Z AUTO 17006KT 10SM BKN022 BKN027 OVC034 16/11 A2997 RMK A01
KFYE 082315Z AUTO 17006KT 10SM BKN026 OVC035 16/11 A2997 RMK A01
KFYE 082255Z AUTO 17007KT 10SM BKN027 OVC037 16/11 A2997 RMK A01
KFYE 082235Z AUTO 17008KT 10SM BKN032 OVC037 16/10 A2997 RMK A01
KFYE 082215Z AUTO 19007KT 10SM OVC033 16/10 A2998 RMK A01
KFYE 082155Z AUTO VRB04KT 10SM BKN033 OVC039 16/10 A2997 RMK A01
KFYE 082135Z AUTO 19005KT 10SM BKN035 OVC043 16/10 A2997 RMK A01
KFYE 082115Z AUTO 18009KT 10SM BKN032 OVC042 16/10 A2997 RMK A01
KFYE 082055Z AUTO 17006G13KT 10SM OVC031 16/10 A2997 RMK A01
KFYE 082035Z AUTO 18009G15KT 140V200 10SM OVC032 16/09 A2999 RMK A01
KFYE 082015Z AUTO 18010G16KT 10SM OVC032 16/09 A2999 RMK A01
KFYE 081955Z AUTO 19009G16KT 10SM BKN033 16/09 A3000 RMK A01
KFYE 081935Z AUTO 19013G19KT 10SM BKN033 16/09 A3002 RMK A01
KFYE 081915Z AUTO 20012G17KT 10SM SCT033 16/09 A3002 RMK A01
KFYE 081855Z AUTO 18012G19KT 140V200 10SM SCT033 SCT046 16/09 A3003 RMK A01
KFYE 081835Z AUTO 18009G15KT 10SM CLR 16/09 A3005 RMK A01
KFYE 081815Z AUTO 19010KT 10SM FEW036 15/09 A3005 RMK A01
KFYE 081755Z AUTO 18007G14KT 150V210 10SM SCT036 SCT046 15/10 A3005 RMK A01
KFYE 081735Z AUTO 18009G16KT 10SM BKN045 15/10 A3008 RMK A01
KFYE 081715Z AUTO 20009KT 10SM OVC044 14/10 A3008 RMK A01
KFYE 081655Z AUTO 18009G14KT 150V210 10SM OVC043 13/10 A3010 RMK A01
KFYE 081635Z AUTO 18008G14KT 10SM BKN043 13/10 A3011 RMK A01
KFYE 081615Z AUTO 17009G14KT 150V210 10SM BKN044 12/10 A3012 RMK A01
KFYE 081555Z AUTO 18008KT 10SM FEW036 OVC044 11/10 A3013 RMK A01
KFYE 081535Z AUTO 18007G12KT 10SM BKN044 10/09 A3014 RMK A01
KFYE 081515Z AUTO 17007KT 120V190 10SM BKN044 08/08 A3013 RMK A01
KFYE 081455Z AUTO VRB03KT 8SM BKN044 06/06 A3014 RMK A01
KFYE 081435Z AUTO 00000KT 5SM BR BKN044 05/04 A3014 RMK A01